X  Sluiten METAR luchtvaart weer gegevens      EHRD Rotterdam The Hague Airport
Temperatuur
12°C Temperatuur
10°C Dauwpunt
88% Vochtigheid



Wind
37 KM/U
23 MPH
10 M/S
20 KTS



250°
WZW
Huidig weer

Hevige Showers, Regen Hevige Showers, Regen
Luchtdruk 988.92 (hPa) - 29.2 (inHg)
Zicht 1.9 (mijl) - 3 (km)
Vliegveld
Vliegveld code EHRD

Locatie : Rotterdam The Hague Airport
Afstand: 16 (km)

Metar:
EHRD 251855Z AUTO 25020G30KT 220V290 3200 +SHRA FEW007 SCT011 BKN015CB 12/10 Q0989 REDZ TEMPO 4000 BKN008

Tijd: 25-09-2020 20:55 CEST